createdAt,value
2018-11-25T00:02:00.367Z,7.10
2018-11-25T00:04:27.888Z,7.00
2018-11-25T00:06:55.326Z,7.10
2018-11-25T00:09:22.912Z,7.10
2018-11-25T00:11:50.354Z,7.10
2018-11-25T00:14:17.860Z,7.20
2018-11-25T00:16:45.457Z,7.10
2018-11-25T00:19:13.008Z,7.10
2018-11-25T00:21:40.546Z,7.10
2018-11-25T00:24:08.165Z,7.10
2018-11-25T00:26:35.714Z,7.20
2018-11-25T00:29:03.339Z,7.10
2018-11-25T00:31:30.952Z,7.10
2018-11-25T00:33:58.450Z,7.10
2018-11-25T00:36:26.012Z,7.10
2018-11-25T00:38:53.532Z,7.10
2018-11-25T00:41:21.044Z,7.10
2018-11-25T00:43:48.544Z,7.10
2018-11-25T00:46:16.026Z,7.10
2018-11-25T00:48:43.624Z,7.10
2018-11-25T00:51:11.177Z,7.10
2018-11-25T00:53:38.651Z,7.00
2018-11-25T00:56:06.499Z,7.00
2018-11-25T00:58:34.163Z,7.00
2018-11-25T01:01:02.025Z,7.10
2018-11-25T01:03:29.501Z,7.00
2018-11-25T01:05:57.098Z,7.10
2018-11-25T01:08:24.677Z,7.10
2018-11-25T01:10:52.209Z,7.10
2018-11-25T01:13:19.868Z,7.00
2018-11-25T01:15:47.399Z,7.00
2018-11-25T01:18:14.916Z,7.00
2018-11-25T01:20:42.459Z,7.00
2018-11-25T01:23:10.084Z,7.00
2018-11-25T01:25:37.631Z,7.00
2018-11-25T01:28:06.597Z,6.90
2018-11-25T01:30:34.096Z,7.00
2018-11-25T01:33:01.644Z,6.90
2018-11-25T01:35:29.163Z,6.90
2018-11-25T01:37:56.660Z,6.90
2018-11-25T01:40:24.163Z,6.90
2018-11-25T01:42:51.771Z,7.00
2018-11-25T01:45:20.230Z,6.90
2018-11-25T01:47:47.703Z,6.90
2018-11-25T01:50:15.957Z,6.90
2018-11-25T01:52:43.507Z,6.90
2018-11-25T01:55:17.808Z,6.90
2018-11-25T01:57:45.484Z,6.90
2018-11-25T02:00:16.807Z,6.90
2018-11-25T02:02:44.292Z,6.90
2018-11-25T02:05:11.744Z,6.90
2018-11-25T02:07:39.234Z,6.90
2018-11-25T02:10:09.792Z,6.80
2018-11-25T02:12:37.318Z,6.80
2018-11-25T02:15:06.360Z,6.80
2018-11-25T02:17:33.887Z,6.80
2018-11-25T02:20:01.467Z,6.70
2018-11-25T02:22:29.090Z,6.70
2018-11-25T02:24:56.498Z,6.70
2018-11-25T02:27:23.954Z,6.70
2018-11-25T02:29:51.434Z,6.70
2018-11-25T02:32:18.865Z,6.60
2018-11-25T02:34:46.341Z,6.70
2018-11-25T02:37:13.887Z,6.70
2018-11-25T02:39:41.339Z,6.80
2018-11-25T02:42:08.907Z,6.70
2018-11-25T02:44:36.377Z,6.70
2018-11-25T02:47:03.979Z,6.80
2018-11-25T02:49:32.320Z,6.80
2018-11-25T02:51:59.818Z,6.70
2018-11-25T02:54:27.317Z,6.80
2018-11-25T02:56:54.761Z,6.80
2018-11-25T02:59:22.499Z,6.80
2018-11-25T03:01:49.965Z,6.60
2018-11-25T03:04:17.416Z,6.80
2018-11-25T03:06:44.948Z,6.80
2018-11-25T03:09:13.240Z,6.80
2018-11-25T03:11:40.716Z,6.80
2018-11-25T03:14:08.180Z,6.80
2018-11-25T03:16:36.018Z,6.80
2018-11-25T03:19:05.221Z,6.70
2018-11-25T03:21:33.605Z,6.80
2018-11-25T03:24:01.200Z,6.70
2018-11-25T03:26:28.688Z,6.70
2018-11-25T03:28:56.129Z,6.80
2018-11-25T03:31:23.641Z,6.80
2018-11-25T03:33:51.105Z,6.80
2018-11-25T03:36:18.673Z,6.80
2018-11-25T03:38:46.219Z,6.90
2018-11-25T03:41:13.798Z,6.80
2018-11-25T03:43:50.304Z,6.80
2018-11-25T03:46:20.323Z,6.70
2018-11-25T03:48:47.876Z,6.80
2018-11-25T03:51:15.438Z,6.60
2018-11-25T03:53:42.978Z,6.70
2018-11-25T03:56:10.438Z,6.80
2018-11-25T03:58:38.219Z,6.80
2018-11-25T04:01:05.698Z,6.80
2018-11-25T04:03:33.305Z,6.60
2018-11-25T04:06:00.726Z,6.80
2018-11-25T04:08:28.177Z,6.80
2018-11-25T04:10:55.619Z,6.80
2018-11-25T04:13:23.134Z,6.70
2018-11-25T04:15:50.655Z,6.80
2018-11-25T04:18:18.410Z,6.80
2018-11-25T04:20:46.008Z,6.80
2018-11-25T04:23:13.477Z,6.80
2018-11-25T04:25:41.049Z,6.80
2018-11-25T04:28:08.557Z,6.80
2018-11-25T04:30:35.988Z,6.80
2018-11-25T04:33:03.568Z,6.70
2018-11-25T04:35:31.029Z,6.70
2018-11-25T04:37:58.470Z,6.70
2018-11-25T04:40:25.997Z,6.70
2018-11-25T04:42:53.806Z,6.90
2018-11-25T04:45:21.669Z,6.80
2018-11-25T04:47:49.130Z,6.80
2018-11-25T04:50:17.763Z,6.80
2018-11-25T04:52:45.237Z,6.80
2018-11-25T04:55:12.819Z,6.80
2018-11-25T04:57:40.342Z,6.80
2018-11-25T05:00:09.459Z,6.80
2018-11-25T05:02:37.006Z,6.80
2018-11-25T05:05:05.883Z,6.80
2018-11-25T05:07:33.345Z,6.80
2018-11-25T05:10:00.840Z,6.80
2018-11-25T05:12:28.296Z,6.40
2018-11-25T05:14:55.787Z,6.80
2018-11-25T05:17:23.625Z,6.70
2018-11-25T05:19:51.155Z,6.80
2018-11-25T05:22:18.795Z,6.80
2018-11-25T05:24:46.508Z,6.70
2018-11-25T05:27:14.049Z,6.70
2018-11-25T05:29:41.512Z,6.70
2018-11-25T05:32:08.959Z,6.70
2018-11-25T05:34:36.455Z,6.70
2018-11-25T05:37:03.942Z,6.70
2018-11-25T05:39:31.678Z,6.70
2018-11-25T05:41:59.181Z,6.80
2018-11-25T05:44:27.267Z,6.70
2018-11-25T05:46:54.753Z,6.70
2018-11-25T05:49:22.304Z,6.80
2018-11-25T05:51:49.817Z,6.80
2018-11-25T05:54:17.363Z,6.80
2018-11-25T05:56:44.857Z,6.80
2018-11-25T05:59:12.349Z,6.70
2018-11-25T06:01:39.800Z,6.80
2018-11-25T06:04:07.319Z,6.80
2018-11-25T06:06:34.762Z,6.80
2018-11-25T06:09:02.224Z,6.80
2018-11-25T06:11:30.322Z,6.80
2018-11-25T06:13:57.784Z,6.80
2018-11-25T06:16:25.276Z,6.70
2018-11-25T06:18:53.172Z,6.70
2018-11-25T06:21:20.623Z,6.70
2018-11-25T06:23:48.094Z,6.70
2018-11-25T06:26:15.601Z,6.70
2018-11-25T06:28:43.027Z,6.70
2018-11-25T06:31:10.575Z,6.80
2018-11-25T06:33:38.086Z,6.70
2018-11-25T06:36:05.604Z,6.70
2018-11-25T06:38:33.093Z,6.60
2018-11-25T06:41:00.816Z,6.70
2018-11-25T06:43:28.239Z,6.70
2018-11-25T06:45:55.762Z,6.70
2018-11-25T06:48:23.248Z,6.80
2018-11-25T06:50:50.778Z,6.70
2018-11-25T06:53:18.193Z,6.60
2018-11-25T06:55:50.763Z,6.60
2018-11-25T06:58:18.755Z,6.60
2018-11-25T07:00:47.396Z,6.60
2018-11-25T07:03:16.373Z,6.60
2018-11-25T07:05:47.985Z,6.50
2018-11-25T07:08:16.266Z,6.50
2018-11-25T07:10:44.891Z,6.50
2018-11-25T07:13:14.375Z,6.50
2018-11-25T07:15:42.516Z,6.50
2018-11-25T07:18:10.239Z,6.50
2018-11-25T07:20:38.439Z,6.50
2018-11-25T07:23:06.599Z,6.50
2018-11-25T07:25:35.472Z,6.40
2018-11-25T07:28:17.944Z,6.40
2018-11-25T07:30:33.379Z,6.60
2018-11-25T07:33:07.315Z,6.50
2018-11-25T07:35:38.244Z,6.50
2018-11-25T07:38:07.642Z,6.40
2018-11-25T07:40:40.148Z,6.40
2018-11-25T07:43:08.540Z,6.40
2018-11-25T07:45:37.383Z,6.40
2018-11-25T07:48:06.856Z,6.40
2018-11-25T07:50:37.597Z,6.30
2018-11-25T07:53:06.003Z,6.30
2018-11-25T07:55:34.557Z,6.40
2018-11-25T07:58:02.388Z,6.30
2018-11-25T08:00:34.556Z,6.30
2018-11-25T08:03:03.867Z,6.20
2018-11-25T08:05:32.091Z,6.30
2018-11-25T08:08:00.766Z,6.40
2018-11-25T08:10:28.765Z,6.40
2018-11-25T08:12:56.663Z,6.40
2018-11-25T08:15:24.241Z,6.40
2018-11-25T08:17:53.465Z,6.30
2018-11-25T08:20:23.052Z,6.40
2018-11-25T08:22:52.819Z,6.40
2018-11-25T08:25:22.357Z,6.40
2018-11-25T08:27:50.452Z,6.50
2018-11-25T08:30:20.855Z,6.40
2018-11-25T08:32:49.786Z,6.50
2018-11-25T08:35:19.616Z,6.50
2018-11-25T08:37:47.347Z,6.60
2018-11-25T08:40:17.570Z,6.60
2018-11-25T08:42:45.753Z,6.60
2018-11-25T08:45:19.596Z,6.70
2018-11-25T08:47:47.449Z,6.60
2018-11-25T08:50:17.348Z,6.60
2018-11-25T08:52:50.117Z,6.70
2018-11-25T08:55:19.073Z,6.70
2018-11-25T08:57:47.548Z,6.70
2018-11-25T09:00:20.488Z,6.70
2018-11-25T09:02:49.208Z,6.70
2018-11-25T09:05:18.217Z,6.70
2018-11-25T09:07:46.460Z,6.70
2018-11-25T09:10:18.966Z,6.80
2018-11-25T09:12:56.038Z,6.80
2018-11-25T09:15:24.350Z,6.90
2018-11-25T09:17:52.618Z,7.20
2018-11-25T09:20:22.341Z,6.90
2018-11-25T09:22:50.781Z,7.00
2018-11-25T09:25:31.701Z,7.00
2018-11-25T09:28:00.670Z,7.10
2018-11-25T09:30:29.923Z,7.10
2018-11-25T09:32:59.691Z,7.10
2018-11-25T09:35:34.619Z,7.30
2018-11-25T09:38:03.594Z,7.10
2018-11-25T09:40:31.639Z,7.20
2018-11-25T09:43:01.145Z,7.20
2018-11-25T09:45:29.257Z,7.30
2018-11-25T09:47:57.782Z,7.30
2018-11-25T09:50:25.605Z,7.30
2018-11-25T09:52:53.631Z,7.30
2018-11-25T09:55:25.777Z,7.30
2018-11-25T09:57:54.773Z,7.30
2018-11-25T10:00:25.512Z,7.40
2018-11-25T10:02:53.641Z,7.40
2018-11-25T10:05:22.046Z,7.40
2018-11-25T10:07:50.609Z,7.40
2018-11-25T10:10:22.115Z,7.40
2018-11-25T10:12:56.153Z,7.30
2018-11-25T10:15:29.580Z,7.30
2018-11-25T10:17:59.834Z,7.40
2018-11-25T10:20:31.239Z,7.30
2018-11-25T10:22:59.593Z,7.30
2018-11-25T10:25:29.186Z,7.40
2018-11-25T10:27:57.832Z,7.40
2018-11-25T10:30:27.848Z,7.50
2018-11-25T10:32:58.880Z,7.50
2018-11-25T10:35:27.942Z,7.60
2018-11-25T10:37:56.543Z,7.50
2018-11-25T10:40:30.987Z,7.60
2018-11-25T10:43:02.953Z,7.60
2018-11-25T10:45:31.373Z,7.70
2018-11-25T10:48:07.133Z,7.70
2018-11-25T10:50:36.597Z,7.80
2018-11-25T10:53:04.884Z,7.80
2018-11-25T10:55:33.119Z,7.80
2018-11-25T10:58:01.367Z,7.80
2018-11-25T11:00:40.106Z,7.80
2018-11-25T11:03:15.311Z,7.80
2018-11-25T11:05:48.876Z,8.00
2018-11-25T11:08:16.690Z,8.10
2018-11-25T11:10:45.742Z,8.00
2018-11-25T11:13:13.280Z,8.00
2018-11-25T11:15:44.674Z,8.20
2018-11-25T11:18:12.703Z,8.20
2018-11-25T11:20:40.641Z,8.20
2018-11-25T11:23:09.367Z,8.00
2018-11-25T11:25:37.098Z,8.20
2018-11-25T11:28:04.843Z,8.10
2018-11-25T11:30:34.299Z,8.30
2018-11-25T11:33:03.230Z,8.20
2018-11-25T11:35:32.115Z,8.20
2018-11-25T11:38:00.533Z,8.30
2018-11-25T11:40:29.528Z,8.20
2018-11-25T11:42:58.338Z,8.20
2018-11-25T11:45:25.981Z,8.20
2018-11-25T11:47:54.094Z,8.00
2018-11-25T11:50:22.692Z,8.10
2018-11-25T11:52:51.207Z,8.10
2018-11-25T11:55:18.731Z,8.10
2018-11-25T11:57:57.159Z,8.00
2018-11-25T12:00:27.070Z,8.00
2018-11-25T12:02:55.209Z,8.10
2018-11-25T12:07:59.575Z,8.00
2018-11-25T12:10:29.761Z,8.10
2018-11-25T12:12:59.224Z,8.20
2018-11-25T12:15:36.082Z,8.10
2018-11-25T12:18:07.096Z,8.20
2018-11-25T12:20:35.831Z,8.20
2018-11-25T12:23:03.681Z,8.20
2018-11-25T12:25:32.374Z,8.30
2018-11-25T12:28:00.869Z,8.20
2018-11-25T12:30:30.342Z,8.30
2018-11-25T12:32:58.521Z,8.20
2018-11-25T12:35:27.781Z,8.30
2018-11-25T12:38:00.248Z,8.30
2018-11-25T12:40:28.015Z,8.40
2018-11-25T12:42:57.132Z,8.40
2018-11-25T12:45:24.994Z,8.40
2018-11-25T12:47:53.508Z,8.40
2018-11-25T12:50:25.452Z,8.50
2018-11-25T12:52:53.780Z,8.50
2018-11-25T12:55:22.705Z,8.50
2018-11-25T12:57:50.899Z,8.40
2018-11-25T13:00:27.272Z,8.40
2018-11-25T13:02:54.904Z,8.20
2018-11-25T13:05:23.927Z,8.30
2018-11-25T13:07:51.651Z,8.30
2018-11-25T13:10:19.983Z,8.30
2018-11-25T13:12:53.648Z,8.30
2018-11-25T13:15:22.577Z,8.30
2018-11-25T13:17:51.817Z,8.30
2018-11-25T13:20:19.819Z,8.30
2018-11-25T13:22:47.870Z,8.40
2018-11-25T13:25:17.711Z,8.40
2018-11-25T13:27:45.745Z,8.40
2018-11-25T13:30:34.455Z,8.40
2018-11-25T13:33:02.578Z,8.50
2018-11-25T13:35:38.030Z,8.50
2018-11-25T13:38:06.865Z,8.40
2018-11-25T13:40:34.395Z,8.60
2018-11-25T13:43:02.231Z,8.60
2018-11-25T13:45:32.108Z,8.60
2018-11-25T13:48:02.428Z,8.60
2018-11-25T13:50:30.043Z,8.40
2018-11-25T13:52:58.122Z,8.70
2018-11-25T13:55:27.061Z,8.60
2018-11-25T13:57:55.523Z,8.70
2018-11-25T14:00:36.609Z,8.70
2018-11-25T14:03:07.697Z,8.70
2018-11-25T14:05:35.735Z,8.60
2018-11-25T14:08:03.349Z,8.70
2018-11-25T14:10:32.367Z,8.70
2018-11-25T14:13:06.117Z,8.80
2018-11-25T14:15:40.706Z,8.70
2018-11-25T14:18:08.378Z,8.70
2018-11-25T14:20:37.419Z,8.70
2018-11-25T14:23:09.208Z,8.70
2018-11-25T14:25:37.093Z,8.70
2018-11-25T14:28:10.294Z,8.30
2018-11-25T14:30:38.241Z,8.70
2018-11-25T14:33:06.145Z,8.60
2018-11-25T14:35:33.980Z,8.60
2018-11-25T14:38:03.797Z,8.60
2018-11-25T14:40:32.398Z,8.60
2018-11-25T14:43:01.058Z,8.60
2018-11-25T14:45:33.425Z,8.60
2018-11-25T14:48:02.393Z,8.50
2018-11-25T14:50:30.475Z,8.60
2018-11-25T14:53:03.782Z,8.50
2018-11-25T14:55:33.668Z,8.50
2018-11-25T14:58:01.660Z,8.50
2018-11-25T15:00:29.864Z,8.50
2018-11-25T15:03:00.211Z,8.50
2018-11-25T15:05:36.060Z,8.50
2018-11-25T15:08:05.307Z,8.40
2018-11-25T15:10:32.970Z,8.40
2018-11-25T15:13:01.036Z,8.40
2018-11-25T15:15:28.978Z,8.40
2018-11-25T15:17:56.509Z,8.40
2018-11-25T15:20:25.148Z,8.40
2018-11-25T15:22:54.583Z,8.40
2018-11-25T15:25:25.640Z,8.30
2018-11-25T15:27:53.414Z,8.30
2018-11-25T15:30:23.652Z,8.30
2018-11-25T15:32:51.942Z,8.30
2018-11-25T15:35:19.666Z,8.30
2018-11-25T15:37:49.868Z,8.30
2018-11-25T15:40:26.918Z,8.20
2018-11-25T15:42:55.514Z,8.20
2018-11-25T15:45:25.549Z,8.20
2018-11-25T15:47:57.151Z,8.20
2018-11-25T15:50:26.920Z,8.10
2018-11-25T15:52:54.994Z,8.20
2018-11-25T15:55:23.495Z,8.20
2018-11-25T15:57:51.831Z,8.20
2018-11-25T16:00:21.447Z,8.10
2018-11-25T16:02:50.898Z,8.10
2018-11-25T16:05:24.676Z,8.10
2018-11-25T16:07:53.497Z,7.60
2018-11-25T16:10:23.355Z,8.10
2018-11-25T16:12:51.746Z,8.10
2018-11-25T16:15:24.901Z,8.10
2018-11-25T16:17:52.666Z,8.00
2018-11-25T16:20:23.820Z,8.00
2018-11-25T16:22:53.753Z,8.00
2018-11-25T16:25:32.853Z,7.90
2018-11-25T16:28:10.124Z,8.00
2018-11-25T16:30:43.300Z,8.00
2018-11-25T16:33:12.151Z,8.00
2018-11-25T16:35:39.852Z,8.00
2018-11-25T16:38:07.573Z,7.50
2018-11-25T16:40:37.091Z,8.00
2018-11-25T16:43:12.346Z,7.90
2018-11-25T16:45:40.932Z,7.90
2018-11-25T16:48:09.832Z,7.90
2018-11-25T16:50:38.284Z,7.90
2018-11-25T16:53:07.979Z,7.80
2018-11-25T16:55:41.721Z,7.80
2018-11-25T16:58:16.937Z,7.80
2018-11-25T17:00:52.429Z,7.80
2018-11-25T17:03:21.280Z,7.80
2018-11-25T17:05:50.995Z,7.80
2018-11-25T17:08:26.519Z,7.80
2018-11-25T17:10:55.013Z,7.80
2018-11-25T17:13:23.538Z,7.80
2018-11-25T17:15:51.545Z,7.80
2018-11-25T17:18:23.569Z,7.40
2018-11-25T17:20:53.175Z,7.80
2018-11-25T17:23:21.947Z,7.70
2018-11-25T17:25:49.883Z,7.80
2018-11-25T17:28:19.101Z,7.70
2018-11-25T17:30:47.679Z,7.70
2018-11-25T17:33:16.623Z,7.70
2018-11-25T17:35:45.899Z,7.70
2018-11-25T17:38:14.756Z,7.60
2018-11-25T17:40:42.722Z,7.70
2018-11-25T17:43:17.437Z,7.70
2018-11-25T17:45:46.384Z,7.60
2018-11-25T17:48:15.165Z,7.60
2018-11-25T17:50:44.138Z,7.60
2018-11-25T17:53:20.950Z,7.60
2018-11-25T17:55:47.117Z,7.60
2018-11-25T17:58:16.614Z,7.60
2018-11-25T18:00:48.749Z,7.50
2018-11-25T18:03:21.654Z,7.60
2018-11-25T18:05:49.366Z,7.50
2018-11-25T18:08:20.889Z,7.50
2018-11-25T18:10:54.008Z,7.50
2018-11-25T18:13:23.601Z,7.50
2018-11-25T18:15:57.949Z,7.50
2018-11-25T18:18:29.523Z,7.50
2018-11-25T18:21:00.137Z,7.50
2018-11-25T18:23:28.195Z,7.50
2018-11-25T18:25:56.507Z,7.50
2018-11-25T18:28:26.722Z,7.40
2018-11-25T18:30:54.722Z,7.50
2018-11-25T18:33:22.384Z,7.40
2018-11-25T18:35:50.088Z,7.40
2018-11-25T18:38:17.893Z,7.40
2018-11-25T18:40:46.439Z,7.40
2018-11-25T18:43:15.367Z,7.40
2018-11-25T18:45:44.335Z,7.40
2018-11-25T18:59:31.283Z,7.40
2018-11-25T19:04:51.602Z,7.30
2018-11-25T19:07:20.959Z,7.30
2018-11-25T19:09:49.092Z,7.50
2018-11-25T19:12:18.578Z,7.20
2018-11-25T19:14:47.366Z,7.50
2018-11-25T19:17:16.481Z,7.30
2018-11-25T19:19:45.308Z,7.80
2018-11-25T19:22:13.181Z,7.30
2018-11-25T19:24:41.212Z,7.30
2018-11-25T19:27:09.860Z,7.30
2018-11-25T19:29:38.104Z,7.30
2018-11-25T19:32:09.876Z,7.20
2018-11-25T19:34:41.952Z,7.20
2018-11-25T19:37:10.497Z,7.20
2018-11-25T19:39:40.886Z,7.20
2018-11-25T19:42:10.131Z,6.90
2018-11-25T19:44:40.637Z,7.20
2018-11-25T19:47:08.925Z,7.30
2018-11-25T19:49:37.239Z,7.30
2018-11-25T19:52:12.996Z,7.20
2018-11-25T19:54:41.963Z,7.20
2018-11-25T19:57:10.200Z,7.20
2018-11-25T19:59:41.263Z,7.20
2018-11-25T20:02:10.259Z,7.10
2018-11-25T20:04:38.173Z,7.20
2018-11-25T20:07:06.923Z,7.20
2018-11-25T20:09:35.492Z,7.20
2018-11-25T20:12:03.930Z,7.10
2018-11-25T20:14:36.656Z,7.10
2018-11-25T20:17:10.322Z,7.20
2018-11-25T20:19:38.631Z,7.20
2018-11-25T20:22:12.627Z,7.20
2018-11-25T20:24:44.667Z,7.10
2018-11-25T20:28:20.424Z,7.10
2018-11-25T20:30:49.038Z,7.10
2018-11-25T20:33:23.067Z,7.10
2018-11-25T20:35:51.368Z,7.10
2018-11-25T20:38:24.742Z,7.00
2018-11-25T20:40:55.931Z,7.10
2018-11-25T20:43:24.896Z,7.10
2018-11-25T20:45:59.554Z,7.00
2018-11-25T20:48:27.271Z,7.00
2018-11-25T20:50:54.803Z,7.10
2018-11-25T20:54:26.448Z,7.00
2018-11-25T20:56:54.091Z,7.10
2018-11-25T20:59:21.837Z,7.00
2018-11-25T21:01:49.521Z,7.10
2018-11-25T21:04:18.153Z,7.10
2018-11-25T21:06:46.673Z,7.30
2018-11-25T21:09:14.226Z,7.10
2018-11-25T21:11:41.923Z,7.10
2018-11-25T21:14:09.532Z,7.10
2018-11-25T21:16:37.059Z,7.10
2018-11-25T21:19:05.709Z,7.00
2018-11-25T21:21:33.275Z,7.00
2018-11-25T21:24:00.847Z,7.00
2018-11-25T21:26:28.560Z,7.00
2018-11-25T21:28:58.318Z,7.00
2018-11-25T21:31:25.953Z,6.90
2018-11-25T21:33:53.583Z,6.90
2018-11-25T21:36:21.156Z,6.90
2018-11-25T21:38:48.843Z,6.90
2018-11-25T21:41:16.378Z,6.90
2018-11-25T21:43:43.882Z,6.90
2018-11-25T21:46:15.547Z,6.90
2018-11-25T21:48:43.147Z,6.80
2018-11-25T21:51:11.714Z,6.80
2018-11-25T21:53:39.178Z,6.80
2018-11-25T21:56:06.914Z,6.80
2018-11-25T21:58:34.590Z,6.80
2018-11-25T22:01:02.156Z,6.70
2018-11-25T22:03:29.637Z,6.80
2018-11-25T22:05:57.211Z,6.80
2018-11-25T22:08:24.852Z,6.80
2018-11-25T22:10:53.326Z,6.60
2018-11-25T22:13:20.907Z,6.80
2018-11-25T22:15:48.882Z,6.80
2018-11-25T22:18:16.405Z,6.80
2018-11-25T22:20:43.880Z,6.80
2018-11-25T22:23:11.346Z,6.80
2018-11-25T22:25:39.025Z,6.70
2018-11-25T22:28:06.653Z,6.70
2018-11-25T22:30:34.315Z,6.80
2018-11-25T22:33:01.905Z,6.70
2018-11-25T22:35:29.493Z,6.40
2018-11-25T22:37:57.279Z,6.70
2018-11-25T22:40:24.835Z,6.70
2018-11-25T22:42:52.446Z,6.70
2018-11-25T22:45:21.082Z,6.70
2018-11-25T22:47:48.750Z,6.80
2018-11-25T22:50:17.527Z,6.80
2018-11-25T22:52:45.150Z,6.80
2018-11-25T22:55:27.210Z,6.80
2018-11-25T22:57:55.018Z,6.80
2018-11-25T23:00:30.350Z,6.60
2018-11-25T23:02:57.901Z,6.80
2018-11-25T23:05:36.760Z,6.80
2018-11-25T23:08:04.497Z,6.80
2018-11-25T23:10:32.039Z,6.80
2018-11-25T23:12:59.477Z,6.80
2018-11-25T23:15:27.005Z,6.80
2018-11-25T23:17:54.520Z,6.80
2018-11-25T23:20:22.012Z,6.70
2018-11-25T23:22:49.493Z,6.70
2018-11-25T23:25:17.031Z,6.70
2018-11-25T23:27:44.484Z,6.70
2018-11-25T23:30:12.051Z,6.80
2018-11-25T23:32:39.555Z,6.70
2018-11-25T23:35:10.921Z,6.80
2018-11-25T23:37:38.516Z,6.80
2018-11-25T23:40:07.339Z,6.80
2018-11-25T23:42:34.829Z,6.90
2018-11-25T23:45:02.873Z,6.90
2018-11-25T23:47:30.436Z,6.90
2018-11-25T23:49:57.902Z,6.90
2018-11-25T23:52:25.397Z,6.90
2018-11-25T23:54:52.869Z,6.90
2018-11-25T23:57:20.500Z,6.90
2018-11-25T23:59:47.943Z,6.90
